Time;durP1;ratioP1;P1;durP2;ratioP2;P2;SDS_P1;SDS_P2;PMS_P1;PMS_P2;Temp;Humidity;BMP_temperature;BMP_pressure;BME280_temperature;BME280_humidity;BME280_pressure;Samples;Min_cycle;Max_cycle;Signal;HPM_P1;HPM_P2
2022/01/31 00:00:55;;;;;;;;;;;-1.10;96.60;;;;;;5061793;28;19985;-79
2022/01/31 00:03:21;;;;;;;;;;;-1.60;96.60;;;;;;5071686;28;19908;-79
2022/01/31 00:05:46;;;;;;;;;;;-1.30;96.60;;;;;;5062463;28;19912;-79
2022/01/31 00:08:14;;;;;;;;;;;0.10;97.00;;;;;;5043604;28;20425;-79
2022/01/31 00:10:40;;;;;;;;;;;-1.30;96.70;;;;;;5062529;28;19908;-79
2022/01/31 00:13:13;;;;;;;;;;;-1.30;96.60;;;;;;5061432;28;19935;-79
2022/01/31 00:15:42;;;;;;;;;;;-1.30;96.50;;;;;;5043408;28;20354;-79
2022/01/31 00:18:08;;;;;;;;;;;-1.40;96.40;;;;;;5061803;28;20100;-79
2022/01/31 00:20:35;;;;;;;;;;;-1.40;96.40;;;;;;5061703;28;19917;-78
2022/01/31 00:23:00;;;;;;;;;;;-0.50;96.50;;;;;;5071079;28;20400;-79
2022/01/31 00:25:26;;;;;;;;;;;-1.30;96.20;;;;;;5062933;28;19940;-78
2022/01/31 00:27:52;;;;;;;;;;;-1.30;96.30;;;;;;5061405;28;19984;-79
2022/01/31 00:30:17;;;;;;;;;;;-0.90;96.40;;;;;;5061563;28;19912;-79
2022/01/31 00:32:43;;;;;;;;;;;-1.10;96.30;;;;;;5060916;28;20043;-78
2022/01/31 00:35:09;;;;;;;;;;;-1.50;96.10;;;;;;5060679;28;20270;-78
2022/01/31 00:37:35;;;;;;;;;;;-1.40;96.20;;;;;;5060579;28;20108;-79
2022/01/31 00:40:01;;;;;;;;;;;-1.50;96.20;;;;;;5050381;28;19950;-79
2022/01/31 00:42:28;;;;;;;;;;;-1.50;95.90;;;;;;5063198;28;19909;-79
2022/01/31 00:44:57;;;;;;;;;;;-1.40;96.10;;;;;;5062855;28;19920;-79
2022/01/31 00:47:28;;;;;;;;;;;-1.10;96.20;;;;;;5063268;28;20283;-79
2022/01/31 00:50:11;;;;;;;;;;;-1.50;96.20;;;;;;5062623;28;19908;-78
2022/01/31 00:52:38;;;;;;;;;;;-1.50;96.10;;;;;;5061868;28;20003;-79
2022/01/31 00:55:04;;;;;;;;;;;0.10;96.70;;;;;;5044222;28;20133;-79
2022/01/31 00:57:30;;;;;;;;;;;-0.90;96.30;;;;;;5061488;28;19908;-79
2022/01/31 00:59:55;;;;;;;;;;;-1.50;96.00;;;;;;5061947;28;19923;-78
2022/01/31 01:02:22;;;;;;;;;;;-1.50;95.90;;;;;;5061809;28;20443;-79
2022/01/31 01:04:47;;;;;;;;;;;-1.60;96.10;;;;;;5061598;28;20008;-79
2022/01/31 01:07:14;;;;;;;;;;;-1.40;96.30;;;;;;5061158;28;20002;-79
2022/01/31 01:09:44;;;;;;;;;;;0.60;96.80;;;;;;5042703;28;19913;-79
2022/01/31 01:12:10;;;;;;;;;;;-1.50;96.20;;;;;;5060810;28;20318;-79
2022/01/31 01:14:37;;;;;;;;;;;-1.60;96.10;;;;;;5060709;28;19912;-79
2022/01/31 01:17:03;;;;;;;;;;;-1.70;96.20;;;;;;5060873;28;20147;-79
2022/01/31 01:19:29;;;;;;;;;;;-1.80;96.40;;;;;;5042506;28;19920;-79
2022/01/31 01:21:54;;;;;;;;;;;-1.70;96.10;;;;;;5042397;28;19923;-79
2022/01/31 01:24:20;;;;;;;;;;;-1.70;95.80;;;;;;5060491;28;19922;-78
2022/01/31 01:26:47;;;;;;;;;;;-1.80;95.50;;;;;;5042249;28;20471;-79
2022/01/31 01:29:13;;;;;;;;;;;-1.90;95.30;;;;;;5060910;28;19969;-79
2022/01/31 01:31:39;;;;;;;;;;;-1.90;95.30;;;;;;5042779;28;20113;-78
2022/01/31 01:34:04;;;;;;;;;;;-1.80;95.60;;;;;;5060642;28;19919;-79
2022/01/31 01:36:31;;;;;;;;;;;-1.80;95.50;;;;;;5042389;28;20463;-79
2022/01/31 01:38:57;;;;;;;;;;;-2.90;94.90;;;;;;5060071;28;19908;-79
2022/01/31 01:41:23;;;;;;;;;;;-1.80;95.20;;;;;;5060069;28;19970;-78
2022/01/31 01:43:48;;;;;;;;;;;-1.70;95.50;;;;;;5060265;28;20567;-79
2022/01/31 01:46:14;;;;;;;;;;;-1.70;95.30;;;;;;5060732;28;19922;-78
2022/01/31 01:48:39;;;;;;;;;;;-1.60;95.50;;;;;;5059985;28;19916;-79
2022/01/31 01:51:05;;;;;;;;;;;-1.50;95.20;;;;;;5060138;28;19915;-79
2022/01/31 01:53:31;;;;;;;;;;;-1.60;95.00;;;;;;5060506;28;20189;-79
2022/01/31 01:55:58;;;;;;;;;;;-1.70;94.70;;;;;;5060700;28;19991;-79
2022/01/31 01:58:24;;;;;;;;;;;-1.60;95.00;;;;;;5061002;28;19908;-78
2022/01/31 02:00:51;;;;;;;;;;;-1.80;94.90;;;;;;5061491;28;19921;-80
2022/01/31 02:03:20;;;;;;;;;;;-1.80;95.20;;;;;;5045022;28;19967;-79
2022/01/31 02:05:46;;;;;;;;;;;-1.80;95.00;;;;;;5067733;28;19912;-78
2022/01/31 02:08:14;;;;;;;;;;;1.10;95.60;;;;;;5069151;28;20121;-80
2022/01/31 02:10:40;;;;;;;;;;;-0.50;95.20;;;;;;5063319;28;20148;-79
2022/01/31 02:13:06;;;;;;;;;;;0.40;95.30;;;;;;5067412;28;19948;-79
2022/01/31 02:15:32;;;;;;;;;;;-1.70;95.10;;;;;;5068796;28;19927;-79
2022/01/31 02:17:57;;;;;;;;;;;-1.90;95.10;;;;;;5070062;28;19909;-79
2022/01/31 02:20:23;;;;;;;;;;;-3.70;94.50;;;;;;5068762;28;20005;-78
2022/01/31 02:22:49;;;;;;;;;;;-1.80;95.10;;;;;;5060436;28;20401;-79
2022/01/31 02:25:15;;;;;;;;;;;-1.50;95.50;;;;;;5060104;28;19958;-79
2022/01/31 02:27:40;;;;;;;;;;;-1.90;95.40;;;;;;5059580;28;20216;-79
2022/01/31 02:30:08;;;;;;;;;;;-1.90;95.20;;;;;;5059293;28;19916;-79
2022/01/31 02:32:34;;;;;;;;;;;-2.00;95.00;;;;;;5059061;28;19944;-79
2022/01/31 02:34:59;;;;;;;;;;;-2.00;95.10;;;;;;5040931;28;20290;-79
2022/01/31 02:37:25;;;;;;;;;;;-2.00;95.00;;;;;;5059277;28;20402;-79
2022/01/31 02:39:50;;;;;;;;;;;-2.00;94.90;;;;;;5040993;28;20110;-78
2022/01/31 02:42:16;;;;;;;;;;;-1.10;95.00;;;;;;5059049;28;20397;-79
2022/01/31 02:44:42;;;;;;;;;;;-2.00;94.70;;;;;;5058663;28;19960;-78
2022/01/31 02:47:15;;;;;;;;;;;-1.00;95.30;;;;;;5059061;28;19935;-78
2022/01/31 02:49:48;;;;;;;;;;;-2.00;95.10;;;;;;5058862;28;19962;-79
2022/01/31 02:52:15;;;;;;;;;;;-2.10;95.10;;;;;;5059226;28;19908;-79
2022/01/31 02:54:41;;;;;;;;;;;-0.70;95.50;;;;;;5058807;28;19908;-79
2022/01/31 02:57:07;;;;;;;;;;;-1.40;95.30;;;;;;5040892;28;19915;-78
2022/01/31 02:59:32;;;;;;;;;;;-2.10;95.20;;;;;;5058919;28;20180;-78
2022/01/31 03:01:58;;;;;;;;;;;-0.80;95.60;;;;;;5040446;28;19916;-78
2022/01/31 03:04:24;;;;;;;;;;;-2.10;95.30;;;;;;5058711;28;19917;-78
2022/01/31 03:06:49;;;;;;;;;;;-2.10;95.20;;;;;;5058833;28;20003;-78
2022/01/31 03:09:15;;;;;;;;;;;1.20;96.20;;;;;;5058510;28;20366;-79
2022/01/31 03:11:41;;;;;;;;;;;-2.20;95.40;;;;;;5040142;28;19985;-79
2022/01/31 03:14:06;;;;;;;;;;;-2.20;95.40;;;;;;5058303;28;20078;-78
2022/01/31 03:16:34;;;;;;;;;;;-2.30;95.30;;;;;;5058292;28;19917;-78
2022/01/31 03:18:59;;;;;;;;;;;-0.50;95.90;;;;;;5058578;28;19947;-79
2022/01/31 03:21:25;;;;;;;;;;;-2.40;95.60;;;;;;5058616;28;19952;-78
2022/01/31 03:23:51;;;;;;;;;;;-1.80;95.80;;;;;;5058243;28;19916;-79
2022/01/31 03:26:17;;;;;;;;;;;-2.50;95.80;;;;;;5040425;28;19983;-78
2022/01/31 03:28:43;;;;;;;;;;;-1.20;96.20;;;;;;5040703;28;20283;-78
2022/01/31 03:31:08;;;;;;;;;;;-2.40;96.00;;;;;;5058644;28;20405;-79
2022/01/31 03:33:34;;;;;;;;;;;-2.50;96.10;;;;;;5058671;28;19917;-79
2022/01/31 03:36:00;;;;;;;;;;;-2.50;96.10;;;;;;5058413;28;19916;-79
2022/01/31 03:38:25;;;;;;;;;;;-2.50;95.90;;;;;;5040422;28;19955;-79
2022/01/31 03:40:51;;;;;;;;;;;-2.50;95.80;;;;;;5040043;28;20217;-78
2022/01/31 03:43:16;;;;;;;;;;;-2.50;95.90;;;;;;5040303;28;19974;-78
2022/01/31 03:45:42;;;;;;;;;;;-0.90;96.30;;;;;;5058638;28;19908;-78
2022/01/31 03:48:08;;;;;;;;;;;-2.50;95.80;;;;;;5040427;28;20353;-79
2022/01/31 03:50:34;;;;;;;;;;;-2.50;95.60;;;;;;5040515;28;20585;-79
2022/01/31 03:52:59;;;;;;;;;;;-1.90;95.90;;;;;;5058378;28;19916;-78
2022/01/31 03:55:25;;;;;;;;;;;-2.50;95.80;;;;;;5058241;28;19948;-79
2022/01/31 03:57:50;;;;;;;;;;;-2.50;95.90;;;;;;5058492;28;19997;-79
2022/01/31 04:00:16;;;;;;;;;;;-2.60;95.90;;;;;;5040108;28;20249;-79
2022/01/31 04:02:42;;;;;;;;;;;-2.60;96.00;;;;;;5058289;28;20381;-78
2022/01/31 04:05:08;;;;;;;;;;;-2.70;96.00;;;;;;5040545;28;19924;-78
2022/01/31 04:07:34;;;;;;;;;;;-2.70;96.00;;;;;;5039352;28;19921;-78
2022/01/31 04:10:00;;;;;;;;;;;-1.60;96.30;;;;;;5058181;28;19969;-78
2022/01/31 04:12:26;;;;;;;;;;;-2.70;95.90;;;;;;5058923;28;19913;-78
2022/01/31 04:14:51;;;;;;;;;;;-2.80;95.80;;;;;;5045075;28;19991;-79
2022/01/31 04:17:19;;;;;;;;;;;-2.00;96.00;;;;;;5052534;28;20232;-78
2022/01/31 04:19:46;;;;;;;;;;;-2.70;95.50;;;;;;5056472;28;20449;-78
2022/01/31 04:22:15;;;;;;;;;;;-2.60;95.70;;;;;;5062263;28;19909;-78
2022/01/31 04:24:41;;;;;;;;;;;-2.60;95.70;;;;;;5062519;28;20123;-79
2022/01/31 04:27:08;;;;;;;;;;;-2.60;95.60;;;;;;5061890;28;20184;-78
2022/01/31 04:29:37;;;;;;;;;;;-2.20;95.70;;;;;;5061661;28;19908;-78
2022/01/31 04:32:03;;;;;;;;;;;-2.40;95.70;;;;;;5061524;28;19909;-78
2022/01/31 04:34:30;;;;;;;;;;;-2.60;95.40;;;;;;5061487;28;20018;-79
2022/01/31 04:36:56;;;;;;;;;;;-2.70;95.50;;;;;;5061782;28;19908;-78
2022/01/31 04:39:22;;;;;;;;;;;-2.40;95.60;;;;;;5061807;28;20355;-78
2022/01/31 04:41:49;;;;;;;;;;;-0.10;96.30;;;;;;5044087;28;19908;-78
2022/01/31 04:44:15;;;;;;;;;;;-2.70;95.60;;;;;;5044039;28;20011;-79
2022/01/31 04:46:41;;;;;;;;;;;-2.70;95.50;;;;;;5062004;28;19908;-79
2022/01/31 04:49:07;;;;;;;;;;;-2.70;95.50;;;;;;5044107;28;19915;-78
2022/01/31 04:51:32;;;;;;;;;;;-2.10;95.60;;;;;;5061806;28;20479;-78
2022/01/31 04:53:58;;;;;;;;;;;-1.50;95.70;;;;;;5061702;28;19961;-78
2022/01/31 04:56:24;;;;;;;;;;;-1.40;95.70;;;;;;5062491;28;19956;-79
2022/01/31 04:58:49;;;;;;;;;;;-2.70;95.40;;;;;;5062092;28;20053;-79
2022/01/31 05:01:15;;;;;;;;;;;-2.70;95.30;;;;;;5062481;28;20291;-78
2022/01/31 05:03:41;;;;;;;;;;;-2.50;95.30;;;;;;5061925;28;20189;-78
2022/01/31 05:06:08;;;;;;;;;;;-1.40;95.60;;;;;;5049578;28;19919;-79
2022/01/31 05:08:35;;;;;;;;;;;-2.90;95.30;;;;;;5069595;28;19978;-79
2022/01/31 05:11:01;;;;;;;;;;;-2.90;95.40;;;;;;5069993;28;20479;-79
2022/01/31 05:13:27;;;;;;;;;;;-0.70;95.90;;;;;;5067383;28;19913;-79
2022/01/31 05:15:53;;;;;;;;;;;-0.50;96.00;;;;;;5061071;28;19922;-78
2022/01/31 05:18:20;;;;;;;;;;;-1.90;95.60;;;;;;5061458;28;19912;-78
2022/01/31 05:20:45;;;;;;;;;;;-2.90;95.20;;;;;;5043289;28;19921;-78
2022/01/31 05:23:11;;;;;;;;;;;-2.90;95.20;;;;;;5060812;28;20115;-78
2022/01/31 05:25:37;;;;;;;;;;;-1.90;95.50;;;;;;5060542;28;20003;-78
2022/01/31 05:28:04;;;;;;;;;;;-2.90;95.20;;;;;;5060679;28;20445;-79
2022/01/31 05:30:29;;;;;;;;;;;-3.00;95.20;;;;;;5042885;28;20130;-78
2022/01/31 05:32:55;;;;;;;;;;;-1.70;95.60;;;;;;5060570;28;20384;-79
2022/01/31 05:35:21;;;;;;;;;;;-3.00;95.30;;;;;;5060549;28;20310;-79
2022/01/31 05:37:46;;;;;;;;;;;-3.00;95.40;;;;;;5042473;28;19938;-78
2022/01/31 05:40:12;;;;;;;;;;;-2.20;95.60;;;;;;5060333;28;19962;-79
2022/01/31 05:42:38;;;;;;;;;;;-2.90;95.20;;;;;;5042477;28;19918;-78
2022/01/31 05:45:06;;;;;;;;;;;-3.00;94.80;;;;;;5060485;28;19982;-78
2022/01/31 05:47:33;;;;;;;;;;;-3.00;94.70;;;;;;5060173;28;19955;-78
2022/01/31 05:49:58;;;;;;;;;;;-3.10;94.80;;;;;;5060257;28;19908;-77
2022/01/31 05:52:25;;;;;;;;;;;-3.20;94.90;;;;;;5060270;28;19909;-78
2022/01/31 05:54:50;;;;;;;;;;;-3.20;95.10;;;;;;5060052;28;20033;-79
2022/01/31 05:57:16;;;;;;;;;;;-3.30;95.10;;;;;;5060251;28;20040;-78
2022/01/31 05:59:42;;;;;;;;;;;-1.30;95.80;;;;;;5059997;28;19912;-78
2022/01/31 06:02:08;;;;;;;;;;;-3.40;95.40;;;;;;5059993;28;19924;-78
2022/01/31 06:04:33;;;;;;;;;;;-2.60;95.70;;;;;;5060209;28;19912;-78
2022/01/31 06:07:00;;;;;;;;;;;-3.50;95.60;;;;;;5060208;28;19916;-79
2022/01/31 06:09:30;;;;;;;;;;;-2.50;96.10;;;;;;5042312;28;20158;-79
2022/01/31 06:11:56;;;;;;;;;;;-3.20;95.70;;;;;;5059886;28;19955;-78
2022/01/31 06:14:22;;;;;;;;;;;-3.40;95.60;;;;;;5042039;28;19952;-78
2022/01/31 06:16:47;;;;;;;;;;;-3.50;95.60;;;;;;5060711;28;19924;-79
2022/01/31 06:19:13;;;;;;;;;;;-3.50;95.90;;;;;;5042206;28;20385;-78
2022/01/31 06:21:39;;;;;;;;;;;-3.30;95.80;;;;;;5060771;28;19912;-79
2022/01/31 06:24:09;;;;;;;;;;;-3.50;95.60;;;;;;5059597;28;20497;-79
2022/01/31 06:26:37;;;;;;;;;;;-3.50;95.40;;;;;;5060642;28;19935;-78
2022/01/31 06:29:03;;;;;;;;;;;-1.80;95.80;;;;;;5061400;28;20375;-79
2022/01/31 06:31:30;;;;;;;;;;;-3.40;95.20;;;;;;5067506;28;20155;-79
2022/01/31 06:33:56;;;;;;;;;;;-3.40;95.20;;;;;;5044898;28;20240;-78
2022/01/31 06:36:23;;;;;;;;;;;-3.50;95.10;;;;;;5059918;28;20193;-78
2022/01/31 06:38:49;;;;;;;;;;;-2.80;95.40;;;;;;5042151;28;19940;-78
2022/01/31 06:41:17;;;;;;;;;;;-3.00;95.40;;;;;;5041931;28;19927;-78
2022/01/31 06:43:43;;;;;;;;;;;-3.40;94.90;;;;;;5059911;28;19908;-79
2022/01/31 06:46:09;;;;;;;;;;;-3.40;94.90;;;;;;5059581;28;19908;-78
2022/01/31 06:48:34;;;;;;;;;;;-1.70;95.20;;;;;;5059911;28;19959;-79
2022/01/31 06:51:00;;;;;;;;;;;-2.10;95.00;;;;;;5059857;28;19984;-78
2022/01/31 06:53:28;;;;;;;;;;;-3.30;94.70;;;;;;5059873;28;20502;-79
2022/01/31 06:55:54;;;;;;;;;;;-3.30;94.60;;;;;;5059778;28;20406;-79
2022/01/31 06:58:19;;;;;;;;;;;-3.20;94.60;;;;;;5060059;28;20439;-78
2022/01/31 07:00:45;;;;;;;;;;;-3.10;94.10;;;;;;5059722;28;20031;-78
2022/01/31 07:03:13;;;;;;;;;;;-2.80;94.30;;;;;;5060450;28;20433;-79
2022/01/31 07:05:41;;;;;;;;;;;-2.40;94.20;;;;;;5059749;28;19913;-78
2022/01/31 07:08:07;;;;;;;;;;;-2.90;93.80;;;;;;5041564;28;19909;-78
2022/01/31 07:10:32;;;;;;;;;;;-0.10;94.30;;;;;;5059257;28;19950;-78
2022/01/31 07:12:59;;;;;;;;;;;-0.90;94.00;;;;;;5060124;28;19909;-78
2022/01/31 07:15:24;;;;;;;;;;;-1.90;93.40;;;;;;5059333;28;19924;-79
2022/01/31 07:17:50;;;;;;;;;;;-2.60;93.60;;;;;;5060634;28;19920;-78
2022/01/31 07:20:28;;;;;;;;;;;-2.50;92.90;;;;;;5041793;28;19948;-78
2022/01/31 07:23:01;;;;;;;;;;;-2.50;92.90;;;;;;5059387;28;19954;-78
2022/01/31 07:25:36;;;;;;;;;;;-1.50;93.00;;;;;;5041153;28;20401;-78
2022/01/31 07:28:03;;;;;;;;;;;-2.20;92.50;;;;;;5059624;28;20062;-78
2022/01/31 07:30:29;;;;;;;;;;;-2.10;92.30;;;;;;5058839;28;20402;-79
2022/01/31 07:32:55;;;;;;;;;;;-2.10;91.90;;;;;;5058941;28;20351;-79
2022/01/31 07:35:21;;;;;;;;;;;0.60;92.40;;;;;;5059691;28;20005;-79
2022/01/31 07:37:46;;;;;;;;;;;-2.00;91.60;;;;;;5059361;28;20379;-78
2022/01/31 07:40:12;;;;;;;;;;;0.70;92.30;;;;;;5059473;28;19928;-78
2022/01/31 07:42:37;;;;;;;;;;;-1.90;91.70;;;;;;5041436;28;19909;-80
2022/01/31 07:45:03;;;;;;;;;;;-1.80;91.70;;;;;;5043480;28;20042;-78
2022/01/31 07:47:29;;;;;;;;;;;-1.50;91.70;;;;;;5063867;28;20507;-78
2022/01/31 07:49:55;;;;;;;;;;;-1.70;91.60;;;;;;5069212;28;20410;-79
2022/01/31 07:52:20;;;;;;;;;;;-1.60;91.40;;;;;;5069515;28;19908;-79
2022/01/31 07:54:46;;;;;;;;;;;-0.10;91.70;;;;;;5068629;28;19908;-79
2022/01/31 07:57:11;;;;;;;;;;;0.50;91.90;;;;;;5051644;28;19931;-79
2022/01/31 07:59:39;;;;;;;;;;;0.30;91.70;;;;;;5076198;28;20007;-78
2022/01/31 08:02:05;;;;;;;;;;;0.60;91.90;;;;;;5074414;28;19908;-78
2022/01/31 08:04:31;;;;;;;;;;;-1.20;91.00;;;;;;5056266;28;20143;-79
2022/01/31 08:06:56;;;;;;;;;;;-1.00;90.70;;;;;;5070375;28;20011;-79
2022/01/31 08:09:22;;;;;;;;;;;-0.70;90.30;;;;;;5063164;28;19908;-80
2022/01/31 08:11:47;;;;;;;;;;;-0.40;89.60;;;;;;5062160;28;19919;-80
2022/01/31 08:14:16;;;;;;;;;;;-0.20;87.90;;;;;;5062771;28;19908;-78
2022/01/31 08:16:42;;;;;;;;;;;0.00;86.40;;;;;;5044667;28;19917;-78
2022/01/31 08:19:08;;;;;;;;;;;0.20;86.30;;;;;;5044329;28;19950;-79
2022/01/31 08:21:34;;;;;;;;;;;0.30;84.90;;;;;;5062350;28;20375;-78
2022/01/31 08:24:01;;;;;;;;;;;0.50;84.60;;;;;;5062312;28;19912;-78
2022/01/31 08:26:27;;;;;;;;;;;0.70;84.70;;;;;;5043954;28;19909;-79
2022/01/31 08:29:01;;;;;;;;;;;0.80;84.40;;;;;;5061674;28;19935;-78
2022/01/31 08:31:34;;;;;;;;;;;0.90;83.20;;;;;;5043729;28;20011;-79
2022/01/31 08:36:27;;;;;;;;;;;1.10;83.00;;;;;;5061710;28;20011;-79
2022/01/31 08:38:54;;;;;;;;;;;1.20;82.30;;;;;;5044255;28;19908;-78
2022/01/31 08:41:19;;;;;;;;;;;1.30;81.60;;;;;;5062878;28;20116;-79
2022/01/31 08:43:45;;;;;;;;;;;1.30;82.00;;;;;;5050305;28;19908;-79
2022/01/31 08:46:11;;;;;;;;;;;1.30;80.80;;;;;;5064528;28;20219;-80
2022/01/31 08:48:37;;;;;;;;;;;1.40;80.80;;;;;;5062669;28;19908;-79
2022/01/31 08:51:04;;;;;;;;;;;1.30;80.30;;;;;;5062357;28;20176;-78
2022/01/31 08:53:30;;;;;;;;;;;1.30;80.60;;;;;;5061451;28;19916;-79
2022/01/31 08:55:58;;;;;;;;;;;1.60;81.60;;;;;;5061100;28;20012;-78
2022/01/31 08:58:24;;;;;;;;;;;1.50;81.70;;;;;;5060457;28;19918;-78
2022/01/31 09:00:58;;;;;;;;;;;1.80;81.60;;;;;;5060717;28;19921;-79
2022/01/31 09:03:55;;;;;;;;;;;1.80;80.30;;;;;;5060929;28;20011;-79
2022/01/31 09:06:25;;;;;;;;;;;2.10;79.20;;;;;;5060651;28;19916;-78
2022/01/31 09:08:51;;;;;;;;;;;2.40;77.40;;;;;;5061008;28;20520;-78
2022/01/31 09:11:17;;;;;;;;;;;2.70;76.50;;;;;;5060834;28;20098;-78
2022/01/31 09:13:43;;;;;;;;;;;2.80;75.60;;;;;;5060712;28;20183;-78
2022/01/31 09:16:08;;;;;;;;;;;2.90;74.60;;;;;;5060860;28;19950;-78
2022/01/31 09:18:36;;;;;;;;;;;3.20;73.90;;;;;;5060968;28;20433;-79
2022/01/31 09:21:03;;;;;;;;;;;4.80;73.70;;;;;;5043154;28;20134;-78
2022/01/31 09:23:29;;;;;;;;;;;3.80;70.70;;;;;;5061157;28;20231;-78
2022/01/31 09:25:56;;;;;;;;;;;3.90;68.80;;;;;;5061102;28;19908;-79
2022/01/31 09:28:22;;;;;;;;;;;4.10;68.60;;;;;;5061433;28;20103;-79
2022/01/31 09:30:48;;;;;;;;;;;4.20;71.10;;;;;;5061461;28;19908;-79
2022/01/31 09:33:14;;;;;;;;;;;4.40;71.80;;;;;;5061061;28;19916;-79
2022/01/31 09:35:40;;;;;;;;;;;4.50;70.10;;;;;;5043330;28;19916;-79
2022/01/31 09:38:06;;;;;;;;;;;4.70;69.50;;;;;;5060713;28;19916;-79
2022/01/31 09:40:32;;;;;;;;;;;5.20;68.40;;;;;;5060752;28;20842;-79
2022/01/31 09:43:23;;;;;;;;;;;4.30;65.70;;;;;;5060702;28;19920;-80
2022/01/31 09:48:32;;;;;;;;;;;4.90;67.20;;;;;;5060977;28;19999;-79
2022/01/31 09:51:17;;;;;;;;;;;5.10;66.40;;;;;;5060189;28;19916;-79
2022/01/31 09:53:51;;;;;;;;;;;5.30;65.80;;;;;;5057311;28;20402;-79
2022/01/31 09:56:21;;;;;;;;;;;5.60;64.40;;;;;;5060436;28;19908;-79
2022/01/31 09:58:47;;;;;;;;;;;5.60;61.80;;;;;;5042817;28;20358;-79
2022/01/31 10:01:16;;;;;;;;;;;5.60;61.50;;;;;;5060659;28;19924;-79
2022/01/31 10:03:44;;;;;;;;;;;5.90;60.00;;;;;;5060564;28;20585;-79
2022/01/31 10:06:19;;;;;;;;;;;6.00;60.60;;;;;;5060288;28;19921;-80
2022/01/31 10:08:45;;;;;;;;;;;6.10;59.90;;;;;;5060853;28;20023;-79
2022/01/31 10:11:20;;;;;;;;;;;6.10;59.90;;;;;;5059935;28;20414;-79
2022/01/31 10:16:34;;;;;;;;;;;6.90;59.90;;;;;;5061843;28;20274;-78
2022/01/31 10:19:02;;;;;;;;;;;6.70;59.40;;;;;;5060846;28;20019;-79
2022/01/31 10:21:28;;;;;;;;;;;7.00;57.10;;;;;;5061488;28;19917;-79
2022/01/31 10:23:54;;;;;;;;;;;7.00;56.10;;;;;;5065231;28;20578;-79
2022/01/31 10:26:30;;;;;;;;;;;7.00;56.00;;;;;;5046166;28;19913;-79
2022/01/31 10:29:09;;;;;;;;;;;6.70;56.20;;;;;;5045712;28;19991;-79
2022/01/31 10:31:35;;;;;;;;;;;6.70;58.50;;;;;;5065244;28;19909;-79
2022/01/31 10:34:13;;;;;;;;;;;6.80;57.80;;;;;;5067369;28;19973;-79
2022/01/31 10:36:39;;;;;;;;;;;7.00;58.50;;;;;;5072492;28;19916;-80
2022/01/31 10:39:06;;;;;;;;;;;7.00;58.60;;;;;;5071179;28;19992;-79
2022/01/31 10:52:31;;;;;;;;;;;6.70;58.10;;;;;;5063281;28;19923;-79
2022/01/31 10:55:12;;;;;;;;;;;6.70;58.90;;;;;;5048595;28;19912;-79
2022/01/31 10:57:37;;;;;;;;;;;6.80;59.10;;;;;;5065436;28;20175;-79
2022/01/31 11:00:03;;;;;;;;;;;6.80;58.60;;;;;;5042786;28;19920;-79
2022/01/31 11:02:29;;;;;;;;;;;7.10;56.80;;;;;;5041319;28;19908;-79
2022/01/31 11:04:54;;;;;;;;;;;7.20;56.20;;;;;;5059777;28;19996;-79
2022/01/31 11:07:21;;;;;;;;;;;7.10;57.20;;;;;;5059866;28;20323;-79
2022/01/31 11:09:51;;;;;;;;;;;7.30;57.50;;;;;;5060025;28;19908;-79
2022/01/31 11:12:19;;;;;;;;;;;7.50;57.00;;;;;;5042237;28;19916;-79
2022/01/31 11:14:46;;;;;;;;;;;7.70;56.40;;;;;;5059244;28;19916;-79
2022/01/31 11:17:13;;;;;;;;;;;8.00;55.10;;;;;;5041980;28;19912;-79
2022/01/31 11:19:40;;;;;;;;;;;7.80;54.30;;;;;;5041083;28;19912;-79
2022/01/31 11:22:07;;;;;;;;;;;7.90;55.20;;;;;;5062736;28;19970;-80
2022/01/31 11:24:37;;;;;;;;;;;7.40;54.70;;;;;;5048103;28;19909;-79
2022/01/31 11:27:06;;;;;;;;;;;8.30;55.50;;;;;;5066291;28;20280;-79
2022/01/31 11:29:34;;;;;;;;;;;8.50;54.20;;;;;;5066398;28;20326;-79
2022/01/31 11:32:00;;;;;;;;;;;8.50;54.40;;;;;;5048741;28;19919;-79
2022/01/31 11:34:26;;;;;;;;;;;8.30;54.00;;;;;;5066473;28;20531;-79
2022/01/31 11:36:52;;;;;;;;;;;8.10;56.20;;;;;;5048163;28;19912;-79
2022/01/31 11:39:18;;;;;;;;;;;8.10;56.60;;;;;;5065926;28;20189;-79
2022/01/31 11:41:45;;;;;;;;;;;8.10;55.20;;;;;;5066155;28;20385;-80
2022/01/31 11:44:30;;;;;;;;;;;7.70;57.10;;;;;;5065675;28;19963;-79
2022/01/31 11:46:56;;;;;;;;;;;7.20;61.20;;;;;;5047429;28;19908;-79
2022/01/31 11:49:22;;;;;;;;;;;6.80;62.10;;;;;;5047778;28;19981;-80
2022/01/31 11:52:07;;;;;;;;;;;6.60;64.20;;;;;;5065744;28;20283;-79
2022/01/31 11:54:44;;;;;;;;;;;6.50;65.10;;;;;;5065530;28;19919;-80
2022/01/31 11:57:20;;;;;;;;;;;6.30;64.10;;;;;;5047513;28;20124;-79
2022/01/31 11:59:51;;;;;;;;;;;6.30;65.80;;;;;;5065682;28;19912;-79
2022/01/31 12:02:18;;;;;;;;;;;6.40;65.50;;;;;;5066223;28;19985;-79
2022/01/31 12:04:45;;;;;;;;;;;4.50;64.50;;;;;;5066532;28;19912;-80
2022/01/31 12:07:41;;;;;;;;;;;6.50;64.50;;;;;;5066586;28;20171;-79
2022/01/31 12:10:09;;;;;;;;;;;6.50;64.70;;;;;;5024100;28;19913;-79
2022/01/31 12:15:35;;;;;;;;;;;6.50;64.80;;;;;;5022136;28;19932;-79
2022/01/31 12:18:28;;;;;;;;;;;6.50;64.80;;;;;;5023813;28;20221;-79
2022/01/31 12:23:51;;;;;;;;;;;6.10;67.10;;;;;;5024277;28;19955;-80
2022/01/31 12:26:46;;;;;;;;;;;6.10;66.60;;;;;;5024339;28;19909;-79
2022/01/31 12:29:13;;;;;;;;;;;5.90;66.70;;;;;;5003825;28;19967;-79
2022/01/31 12:31:43;;;;;;;;;;;5.80;67.50;;;;;;5002856;28;20363;-80
2022/01/31 12:34:10;;;;;;;;;;;5.80;68.00;;;;;;4999242;28;19914;-79
2022/01/31 12:36:36;;;;;;;;;;;5.90;67.60;;;;;;4999818;28;19941;-79
2022/01/31 12:39:03;;;;;;;;;;;6.00;67.60;;;;;;5000200;28;20375;-80
2022/01/31 12:41:32;;;;;;;;;;;6.00;65.30;;;;;;4999626;28;20419;-79
2022/01/31 12:44:16;;;;;;;;;;;5.80;66.10;;;;;;5000015;28;20125;-79
2022/01/31 12:46:48;;;;;;;;;;;5.80;68.00;;;;;;4999585;28;20011;-79
2022/01/31 12:49:14;;;;;;;;;;;5.50;67.60;;;;;;4999711;28;19916;-80
2022/01/31 12:52:00;;;;;;;;;;;5.50;68.60;;;;;;4999817;28;19989;-79
2022/01/31 12:54:26;;;;;;;;;;;5.60;69.20;;;;;;4999700;28;19980;-79
2022/01/31 12:56:54;;;;;;;;;;;5.70;68.20;;;;;;4999821;28;19985;-79
2022/01/31 12:59:20;;;;;;;;;;;5.80;68.10;;;;;;4999645;28;19910;-79
2022/01/31 13:01:47;;;;;;;;;;;5.90;67.90;;;;;;5001282;28;20251;-79
2022/01/31 13:04:19;;;;;;;;;;;6.00;69.30;;;;;;5003308;28;19917;-79
2022/01/31 13:06:46;;;;;;;;;;;6.10;69.00;;;;;;5067755;28;19920;-79
2022/01/31 13:09:17;;;;;;;;;;;6.10;69.20;;;;;;5048645;28;19983;-79
2022/01/31 13:11:44;;;;;;;;;;;6.10;67.30;;;;;;5064435;28;19909;-80
2022/01/31 13:14:12;;;;;;;;;;;6.00;68.30;;;;;;5046901;28;19909;-79
2022/01/31 13:16:39;;;;;;;;;;;6.10;69.60;;;;;;5047591;28;19913;-79
2022/01/31 13:19:16;;;;;;;;;;;6.00;69.80;;;;;;5067153;28;19919;-80
2022/01/31 13:21:42;;;;;;;;;;;6.00;68.80;;;;;;5067530;28;19920;-79
2022/01/31 13:24:08;;;;;;;;;;;5.90;69.10;;;;;;5073288;28;19908;-79
2022/01/31 13:26:49;;;;;;;;;;;5.50;69.10;;;;;;5072534;28;19909;-79
2022/01/31 13:29:30;;;;;;;;;;;5.80;70.10;;;;;;5072812;28;19987;-79
2022/01/31 13:31:56;;;;;;;;;;;5.80;71.60;;;;;;5047395;28;20063;-79
2022/01/31 13:34:40;;;;;;;;;;;5.80;72.10;;;;;;5044164;28;20126;-79
2022/01/31 13:37:35;;;;;;;;;;;5.80;72.30;;;;;;5043748;28;20155;-79
2022/01/31 13:40:04;;;;;;;;;;;5.80;71.60;;;;;;5051530;28;20201;-79
2022/01/31 13:42:36;;;;;;;;;;;5.80;71.40;;;;;;5044517;28;19912;-80
2022/01/31 13:45:03;;;;;;;;;;;5.80;73.40;;;;;;5043076;28;19913;-79
2022/01/31 13:47:35;;;;;;;;;;;5.70;73.70;;;;;;5061481;28;19908;-80
2022/01/31 13:50:03;;;;;;;;;;;5.70;74.80;;;;;;5061583;28;19920;-79
2022/01/31 13:52:33;;;;;;;;;;;5.70;75.30;;;;;;5061240;28;19916;-79
2022/01/31 13:54:58;;;;;;;;;;;5.60;75.20;;;;;;5061214;28;19917;-79
2022/01/31 13:57:24;;;;;;;;;;;5.60;75.80;;;;;;5060750;28;19919;-79
2022/01/31 13:59:51;;;;;;;;;;;5.70;75.70;;;;;;5060682;28;20355;-79
2022/01/31 14:02:17;;;;;;;;;;;5.60;76.40;;;;;;5060476;28;19909;-79
2022/01/31 14:04:43;;;;;;;;;;;5.50;77.50;;;;;;5042940;28;20337;-79
2022/01/31 14:07:29;;;;;;;;;;;5.40;77.80;;;;;;5060583;28;19967;-79
2022/01/31 14:09:54;;;;;;;;;;;5.50;77.80;;;;;;5060366;28;20499;-79
2022/01/31 14:12:23;;;;;;;;;;;5.40;77.50;;;;;;5060642;28;19913;-79
2022/01/31 14:14:49;;;;;;;;;;;5.30;78.20;;;;;;5060036;28;19951;-79
2022/01/31 14:17:14;;;;;;;;;;;5.20;80.10;;;;;;5042264;28;19998;-79
2022/01/31 14:19:40;;;;;;;;;;;5.20;79.50;;;;;;5042486;28;20423;-79
2022/01/31 14:22:08;;;;;;;;;;;5.20;80.20;;;;;;5060082;28;19974;-79
2022/01/31 14:24:34;;;;;;;;;;;5.10;79.50;;;;;;5060015;28;19914;-79
2022/01/31 14:27:02;;;;;;;;;;;5.00;80.40;;;;;;5041674;28;20322;-79
2022/01/31 14:29:34;;;;;;;;;;;3.10;78.30;;;;;;5060067;28;19935;-79
2022/01/31 14:32:00;;;;;;;;;;;5.00;75.30;;;;;;5060155;28;20015;-80
2022/01/31 14:34:26;;;;;;;;;;;5.20;72.90;;;;;;5041814;28;20489;-79
2022/01/31 14:36:56;;;;;;;;;;;5.40;76.00;;;;;;5060685;28;20449;-79
2022/01/31 14:42:07;;;;;;;;;;;5.40;70.30;;;;;;5060096;28;20508;-79
2022/01/31 14:47:39;;;;;;;;;;;5.80;59.60;;;;;;5037607;28;20354;-79
2022/01/31 14:50:09;;;;;;;;;;;6.10;61.40;;;;;;5037399;28;20156;-79
2022/01/31 14:52:35;;;;;;;;;;;6.10;62.90;;;;;;5037875;28;19909;-79
2022/01/31 14:55:02;;;;;;;;;;;6.00;61.80;;;;;;5036985;28;20201;-79
2022/01/31 14:57:28;;;;;;;;;;;6.00;60.20;;;;;;5036368;28;19916;-79